logo Eve Who16,697,890 Characters
798,849 Corporations
8,483 Alliances

Home Pilots Corporations Alliances FAQ 

corp logo
Name:SpaceMonkey's Mafia
Ticker:[MPUBI]
CEO:Ex Aggie
Members:2
Avg. Sec.:0.0
7 Day Delta:0
Activity:Possibly Inactive
LinkszKillboard
Description: 
SMA Puby corp.
Last Updated: 2018-08-19 22:00:34 | 98101475

 Name JoinedLeft
char portraitNessa Tasartircorp logo2014/03/01 05:412014/04/03 06:14
char portraitParaponera Clavatacorp logo2014/03/01 05:392014/04/03 06:14
char portraitKaidrecorp logo2014/03/01 05:392014/04/03 06:14
char portraitZoyechka Kusanagicorp logo2014/03/01 00:242014/04/03 06:14
char portraitZyphyre Kusanagicorp logo2014/03/01 00:192014/04/03 06:14
char portraitZyphyrecorp logo2014/03/01 00:142014/04/03 06:14
char portraitZya Kusanagicorp logo2014/03/01 00:112014/04/03 06:14
char portraitZohelyth Kusanagicorp logo2014/03/01 00:062014/04/03 06:14
char portraitcrowfootecorp logo2014/03/01 00:022014/04/03 06:14
char portraitZafyna Kusanagicorp logo2014/02/28 23:582014/04/03 06:14
char portraitZahyra Kusanagicorp logo2014/02/28 23:582014/04/03 06:14
char portraitRoidDustercorp logo2014/02/28 23:542014/04/03 06:14
char portraitPhantom Kineticscorp logo2014/02/28 23:522014/04/03 06:14
char portraitInocencio Doshucorp logo2014/02/28 23:492014/04/03 06:14
char portraitZytka Kusanagicorp logo2014/02/28 23:412014/04/03 06:14
char portraitOccu Kineticscorp logo2014/02/28 23:392014/04/03 06:14
char portraitHarle Quinnecorp logo2014/02/28 23:212014/04/03 06:14
char portraitSeamus Shamelesscorp logo2014/02/28 23:082014/04/03 06:14
char portraitCele Tiviannecorp logo2014/02/28 23:062014/04/03 06:14
char portraitZyphron Kusanagicorp logo2014/02/28 23:062014/04/03 06:14
char portraitMaverick08corp logo2014/02/28 22:292014/04/03 06:14
char portraitEizancorp logo2014/02/28 22:072014/04/03 06:14
char portraitBromencorp logo2014/02/28 22:062014/04/03 06:14
char portraitAzmegincorp logo2014/02/28 22:062014/04/03 06:14
char portraitAcoataincorp logo2014/02/28 22:052014/04/03 06:14
char portraitbloodthirsty xenolinguistcorp logo2014/01/26 03:022014/06/24 07:11
char portraitcommander vincorp logo2014/01/26 02:522016/06/01 01:34
char portraitThe Xiongnucorp logo2014/01/26 02:50
char portraitMafia Kittencorp logo2013/11/20 08:02
char portraitWinet's Dadcorp logo2013/11/15 13:102013/11/16 23:12
char portraitEdward C0Kcorp logo2012/11/08 20:502012/11/18 06:37
char portraitMinmatar Citizen 92566946corp logo2012/10/29 07:552012/12/03 12:43
char portraitKonan Makencorp logo2012/10/29 07:552013/11/15 08:53
char portraitGallente Citizen 92566816corp logo2012/10/28 04:562012/11/28 09:07
char portraitGallente Citizen 92566833corp logo2012/10/28 04:152012/11/28 09:06
char portraitEnoch Godrickkcorp logo2012/10/28 02:432012/12/03 12:43
char portraitCaldari Citizen 92566632corp logo2012/10/28 02:342012/12/03 12:43
char portraitLonnie kingscorp logo2012/10/26 03:422012/12/03 12:43
char portraitMinmatar Citizen 92560499corp logo2012/10/26 00:282012/12/03 12:43
char portraitMinmatar Citizen 92560360corp logo2012/10/26 00:202012/11/28 09:08
char portraitMinmatar Citizen 92560395corp logo2012/10/25 23:462012/12/03 12:43
char portraitMinmatar Citizen 92560390corp logo2012/10/25 23:452012/11/01 15:44
char portraitMinmatar Citizen 92560338corp logo2012/10/25 23:292012/11/28 09:06
char portraitVash Madulliercorp logo2012/10/25 23:272012/11/02 04:04
char portraitTazmania Rexcorp logo2012/10/25 23:272012/11/28 09:07
char portraitCaldari Citizen 92560365corp logo2012/10/25 23:032013/12/29 23:11
char portraitVileface Modocorp logo2012/10/18 04:292012/10/25 00:56
char portraitSetsuna Zerocorp logo2012/10/14 03:392012/10/28 04:02
char portraitNyx Lusciniacorp logo2012/10/14 03:282012/10/14 04:47
char portraitCharrel Trildcorp logo2012/10/14 03:242013/12/29 23:11
char portraitGallente Citizen 92524960corp logo2012/10/14 03:032012/10/25 01:09
char portraitlyreek Arthiecorp logo2012/10/14 02:312012/10/14 02:59
char portraitTom Chaimetz Creocorp logo2012/10/13 19:542012/10/25 01:08
char portraitRecc Onzocorp logo2012/10/12 07:24
char portraitMinmatar Citizen 92521228corp logo2012/10/12 03:032012/10/25 01:09
char portraitCaldari Citizen 92523356corp logo2012/10/12 00:472012/10/25 01:09
char portraitGallente Citizen 92520572corp logo2012/10/11 05:482012/10/15 07:07
char portraitHarkovich Kerenskycorp logo2012/10/11 04:472012/10/25 01:10
char portraitCaldari Citizen 92517345corp logo2012/10/11 01:082012/10/25 01:10
char portraitdusty Inkuracorp logo2012/10/11 00:38

Page: 1 2 3 4
Current Members Leave History

Any pilots, corporations, or alliances that relate to actual people or entities are purely coincidental.
8q/52ms Disclaimer A / C Brought to you by: Squizz Caphinator Forum Thread
EVE Online and the EVE logo are the registered trademarks of CCP hf. All rights are reserved worldwide. All other trademarks are the property of their respective owners. EVE Online, the EVE logo, EVE and all associated logos and designs are the intellectual property of CCP hf. All artwork, screenshots, characters, vehicles, storylines, world facts or other recognizable features of the intellectual property relating to these trademarks are likewise the intellectual property of CCP hf. CCP hf. has granted permission to evewho.com to use EVE Online and all associated logos and designs for promotional and information purposes on its website but does not endorse, and is not in any way affiliated with, evewho.com. CCP is in no way responsible for the content on or functioning of this website, nor can it be liable for any damage arising from the use of this website.